sensor_id;sensor_type;location;lat;lon;timestamp;pressure;altitude;pressure_sealevel;temperature
72278;BMP280;61204;49.980;8.358;2022-11-21T00:01:15;99583.75;;;6.32
72278;BMP280;61204;49.980;8.358;2022-11-21T00:03:47;99577.59;;;6.31
72278;BMP280;61204;49.980;8.358;2022-11-21T00:06:13;99580.19;;;6.29
72278;BMP280;61204;49.980;8.358;2022-11-21T00:08:39;99585.22;;;6.33
72278;BMP280;61204;49.980;8.358;2022-11-21T00:11:05;99573.16;;;6.36
72278;BMP280;61204;49.980;8.358;2022-11-21T00:13:31;99574.72;;;6.29
72278;BMP280;61204;49.980;8.358;2022-11-21T00:16:05;99569.44;;;6.31
72278;BMP280;61204;49.980;8.358;2022-11-21T00:18:35;99571.13;;;6.27
72278;BMP280;61204;49.980;8.358;2022-11-21T00:21:06;99566.56;;;6.29
72278;BMP280;61204;49.980;8.358;2022-11-21T00:23:35;99565.00;;;6.36
72278;BMP280;61204;49.980;8.358;2022-11-21T00:26:07;99552.66;;;6.35
72278;BMP280;61204;49.980;8.358;2022-11-21T00:28:35;99552.78;;;6.27
72278;BMP280;61204;49.980;8.358;2022-11-21T00:31:02;99561.13;;;6.29
72278;BMP280;61204;49.980;8.358;2022-11-21T00:33:30;99562.72;;;6.32
72278;BMP280;61204;49.980;8.358;2022-11-21T00:35:56;99564.41;;;6.28
72278;BMP280;61204;49.980;8.358;2022-11-21T00:38:22;99565.13;;;6.28
72278;BMP280;61204;49.980;8.358;2022-11-21T00:40:48;99559.38;;;6.34
72278;BMP280;61204;49.980;8.358;2022-11-21T00:43:14;99554.81;;;6.37
72278;BMP280;61204;49.980;8.358;2022-11-21T00:45:40;99560.25;;;6.37
72278;BMP280;61204;49.980;8.358;2022-11-21T00:48:06;99546.66;;;6.37
72278;BMP280;61204;49.980;8.358;2022-11-21T00:50:31;99549.81;;;6.43
72278;BMP280;61204;49.980;8.358;2022-11-21T00:52:57;99555.53;;;6.37
72278;BMP280;61204;49.980;8.358;2022-11-21T00:55:24;99551.22;;;6.34
72278;BMP280;61204;49.980;8.358;2022-11-21T00:57:50;99566.00;;;6.31
72278;BMP280;61204;49.980;8.358;2022-11-21T01:00:17;99551.09;;;6.32
72278;BMP280;61204;49.980;8.358;2022-11-21T01:02:43;99563.13;;;6.29
72278;BMP280;61204;49.980;8.358;2022-11-21T01:05:09;99560.66;;;6.23
72278;BMP280;61204;49.980;8.358;2022-11-21T01:07:34;99554.22;;;6.19
72278;BMP280;61204;49.980;8.358;2022-11-21T01:10:00;99546.16;;;6.11
72278;BMP280;61204;49.980;8.358;2022-11-21T01:12:26;99541.84;;;6.08
72278;BMP280;61204;49.980;8.358;2022-11-21T01:14:51;99532.78;;;5.96
72278;BMP280;61204;49.980;8.358;2022-11-21T01:17:17;99547.28;;;5.98
72278;BMP280;61204;49.980;8.358;2022-11-21T01:19:43;99548.41;;;5.95
72278;BMP280;61204;49.980;8.358;2022-11-21T01:22:09;99536.09;;;5.94
72278;BMP280;61204;49.980;8.358;2022-11-21T01:24:34;99540.69;;;6.01
72278;BMP280;61204;49.980;8.358;2022-11-21T01:27:00;99539.25;;;6.00
72278;BMP280;61204;49.980;8.358;2022-11-21T01:29:26;99540.69;;;6.01
72278;BMP280;61204;49.980;8.358;2022-11-21T01:31:52;99546.13;;;6.01
72278;BMP280;61204;49.980;8.358;2022-11-21T01:34:18;99551.28;;;5.97
72278;BMP280;61204;49.980;8.358;2022-11-21T01:36:43;99549.69;;;5.94
72278;BMP280;61204;49.980;8.358;2022-11-21T01:39:10;99543.09;;;5.88
72278;BMP280;61204;49.980;8.358;2022-11-21T01:41:41;99528.91;;;5.89
72278;BMP280;61204;49.980;8.358;2022-11-21T01:44:15;99534.22;;;5.97
72278;BMP280;61204;49.980;8.358;2022-11-21T01:46:51;99526.19;;;5.89
72278;BMP280;61204;49.980;8.358;2022-11-21T01:49:26;99523.03;;;5.83
72278;BMP280;61204;49.980;8.358;2022-11-21T01:54:30;99520.31;;;5.93
72278;BMP280;61204;49.980;8.358;2022-11-21T01:57:08;99519.66;;;6.02
72278;BMP280;61204;49.980;8.358;2022-11-21T02:00:22;99534.56;;;6.11
72278;BMP280;61204;49.980;8.358;2022-11-21T02:02:57;99521.69;;;6.11
72278;BMP280;61204;49.980;8.358;2022-11-21T02:05:30;99522.81;;;6.08
72278;BMP280;61204;49.980;8.358;2022-11-21T02:08:06;99527.00;;;6.19
72278;BMP280;61204;49.980;8.358;2022-11-21T02:10:49;99537.75;;;6.26
72278;BMP280;61204;49.980;8.358;2022-11-21T02:13:41;99532.31;;;6.26
72278;BMP280;61204;49.980;8.358;2022-11-21T02:16:06;99533.03;;;6.37
72278;BMP280;61204;49.980;8.358;2022-11-21T02:18:33;99532.16;;;6.34
72278;BMP280;61204;49.980;8.358;2022-11-21T02:24:16;99527.44;;;6.35
72278;BMP280;61204;49.980;8.358;2022-11-21T02:27:08;99525.00;;;6.39
72278;BMP280;61204;49.980;8.358;2022-11-21T02:29:34;99522.00;;;6.35
72278;BMP280;61204;49.980;8.358;2022-11-21T02:32:03;99525.44;;;6.25
72278;BMP280;61204;49.980;8.358;2022-11-21T02:34:31;99527.59;;;6.17
72278;BMP280;61204;49.980;8.358;2022-11-21T02:36:58;99523.69;;;6.20
72278;BMP280;61204;49.980;8.358;2022-11-21T02:39:35;99526.00;;;6.24
72278;BMP280;61204;49.980;8.358;2022-11-21T02:44:59;99521.84;;;6.23
72278;BMP280;61204;49.980;8.358;2022-11-21T02:47:39;99514.25;;;6.21
72278;BMP280;61204;49.980;8.358;2022-11-21T02:52:43;99535.59;;;6.15
72278;BMP280;61204;49.980;8.358;2022-11-21T02:55:08;99538.59;;;6.19
72278;BMP280;61204;49.980;8.358;2022-11-21T02:57:37;99539.47;;;6.22
72278;BMP280;61204;49.980;8.358;2022-11-21T03:00:04;99532.69;;;6.13
72278;BMP280;61204;49.980;8.358;2022-11-21T03:02:30;99530.41;;;6.10
72278;BMP280;61204;49.980;8.358;2022-11-21T03:04:56;99540.72;;;6.11
72278;BMP280;61204;49.980;8.358;2022-11-21T03:07:22;99547.28;;;6.08
72278;BMP280;61204;49.980;8.358;2022-11-21T03:09:48;99547.47;;;6.10
72278;BMP280;61204;49.980;8.358;2022-11-21T03:12:13;99553.03;;;6.12
72278;BMP280;61204;49.980;8.358;2022-11-21T03:14:39;99556.88;;;5.99
72278;BMP280;61204;49.980;8.358;2022-11-21T03:17:05;99553.16;;;6.04
72278;BMP280;61204;49.980;8.358;2022-11-21T03:19:30;99566.66;;;6.12
72278;BMP280;61204;49.980;8.358;2022-11-21T03:21:56;99561.06;;;6.10
72278;BMP280;61204;49.980;8.358;2022-11-21T03:24:21;99563.22;;;6.12
72278;BMP280;61204;49.980;8.358;2022-11-21T03:26:47;99553.31;;;6.06
72278;BMP280;61204;49.980;8.358;2022-11-21T03:29:13;99563.34;;;6.04
72278;BMP280;61204;49.980;8.358;2022-11-21T03:31:38;99561.75;;;6.01
72278;BMP280;61204;49.980;8.358;2022-11-21T03:34:04;99570.16;;;5.95
72278;BMP280;61204;49.980;8.358;2022-11-21T03:36:30;99575.34;;;5.91
72278;BMP280;61204;49.980;8.358;2022-11-21T03:38:56;99569.06;;;5.98
72278;BMP280;61204;49.980;8.358;2022-11-21T03:41:23;99569.72;;;5.89
72278;BMP280;61204;49.980;8.358;2022-11-21T03:44:06;99569.28;;;5.93
72278;BMP280;61204;49.980;8.358;2022-11-21T03:46:39;99575.63;;;5.95
72278;BMP280;61204;49.980;8.358;2022-11-21T03:49:08;99570.16;;;5.95
72278;BMP280;61204;49.980;8.358;2022-11-21T03:51:36;99568.88;;;5.96
72278;BMP280;61204;49.980;8.358;2022-11-21T03:54:02;99568.78;;;6.04
72278;BMP280;61204;49.980;8.358;2022-11-21T03:56:28;99568.94;;;6.06
72278;BMP280;61204;49.980;8.358;2022-11-21T03:58:55;99571.47;;;5.94
72278;BMP280;61204;49.980;8.358;2022-11-21T04:01:21;99568.63;;;6.02
72278;BMP280;61204;49.980;8.358;2022-11-21T04:03:48;99572.13;;;5.85
72278;BMP280;61204;49.980;8.358;2022-11-21T04:06:16;99577.06;;;5.69
72278;BMP280;61204;49.980;8.358;2022-11-21T04:08:45;99568.16;;;5.59
72278;BMP280;61204;49.980;8.358;2022-11-21T04:11:11;99573.53;;;5.49
72278;BMP280;61204;49.980;8.358;2022-11-21T04:13:37;99572.94;;;5.51
72278;BMP280;61204;49.980;8.358;2022-11-21T04:16:04;99573.47;;;5.40
72278;BMP280;61204;49.980;8.358;2022-11-21T04:18:30;99573.47;;;5.40
72278;BMP280;61204;49.980;8.358;2022-11-21T04:21:00;99577.56;;;5.31
72278;BMP280;61204;49.980;8.358;2022-11-21T04:23:28;99570.81;;;5.49
72278;BMP280;61204;49.980;8.358;2022-11-21T04:25:54;99573.84;;;5.53
72278;BMP280;61204;49.980;8.358;2022-11-21T04:28:21;99571.78;;;5.44
72278;BMP280;61204;49.980;8.358;2022-11-21T04:30:47;99569.91;;;5.47
72278;BMP280;61204;49.980;8.358;2022-11-21T04:33:14;99574.06;;;5.48
72278;BMP280;61204;49.980;8.358;2022-11-21T04:35:42;99573.88;;;5.63
72278;BMP280;61204;49.980;8.358;2022-11-21T04:38:10;99579.03;;;5.59
72278;BMP280;61204;49.980;8.358;2022-11-21T04:40:37;99578.97;;;5.49
72278;BMP280;61204;49.980;8.358;2022-11-21T04:43:03;99578.06;;;5.47
72278;BMP280;61204;49.980;8.358;2022-11-21T04:45:29;99579.88;;;5.35
72278;BMP280;61204;49.980;8.358;2022-11-21T04:47:55;99579.09;;;5.24
72278;BMP280;61204;49.980;8.358;2022-11-21T04:50:21;99576.84;;;5.13
72278;BMP280;61204;49.980;8.358;2022-11-21T04:52:53;99585.88;;;4.98
72278;BMP280;61204;49.980;8.358;2022-11-21T04:55:23;99578.44;;;4.82
72278;BMP280;61204;49.980;8.358;2022-11-21T04:57:53;99580.16;;;4.94
72278;BMP280;61204;49.980;8.358;2022-11-21T05:00:19;99575.16;;;4.83
72278;BMP280;61204;49.980;8.358;2022-11-21T05:02:45;99577.88;;;4.83
72278;BMP280;61204;49.980;8.358;2022-11-21T05:05:11;99579.09;;;4.90
72278;BMP280;61204;49.980;8.358;2022-11-21T05:07:38;99576.84;;;4.96
72278;BMP280;61204;49.980;8.358;2022-11-21T05:10:05;99585.47;;;5.02
72278;BMP280;61204;49.980;8.358;2022-11-21T05:12:32;99583.41;;;5.27
72278;BMP280;61204;49.980;8.358;2022-11-21T05:15:16;99581.03;;;5.41
72278;BMP280;61204;49.980;8.358;2022-11-21T05:17:43;99582.09;;;5.46
72278;BMP280;61204;49.980;8.358;2022-11-21T05:20:09;99580.66;;;5.45
72278;BMP280;61204;49.980;8.358;2022-11-21T05:22:35;99580.66;;;5.45
72278;BMP280;61204;49.980;8.358;2022-11-21T05:25:01;99585.19;;;5.60
72278;BMP280;61204;49.980;8.358;2022-11-21T05:27:27;99581.31;;;5.63
72278;BMP280;61204;49.980;8.358;2022-11-21T05:29:52;99581.88;;;5.61
72278;BMP280;61204;49.980;8.358;2022-11-21T05:32:19;99573.94;;;5.73
72278;BMP280;61204;49.980;8.358;2022-11-21T05:34:45;99575.03;;;5.87
72278;BMP280;61204;49.980;8.358;2022-11-21T05:37:11;99578.06;;;5.91
72278;BMP280;61204;49.980;8.358;2022-11-21T05:39:36;99560.28;;;5.90
72278;BMP280;61204;49.980;8.358;2022-11-21T05:42:02;99565.59;;;5.98
72278;BMP280;61204;49.980;8.358;2022-11-21T05:44:28;99562.19;;;6.07
72278;BMP280;61204;49.980;8.358;2022-11-21T05:46:53;99555.19;;;6.04
72278;BMP280;61204;49.980;8.358;2022-11-21T05:49:19;99557.63;;;6.10
72278;BMP280;61204;49.980;8.358;2022-11-21T05:51:45;99568.34;;;6.07
72278;BMP280;61204;49.980;8.358;2022-11-21T05:54:12;99563.78;;;6.10
72278;BMP280;61204;49.980;8.358;2022-11-21T05:56:39;99550.31;;;6.12
72278;BMP280;61204;49.980;8.358;2022-11-21T05:59:05;99561.78;;;6.20
72278;BMP280;61204;49.980;8.358;2022-11-21T06:01:34;99563.53;;;6.25
72278;BMP280;61204;49.980;8.358;2022-11-21T06:04:18;99562.97;;;6.17
72278;BMP280;61204;49.980;8.358;2022-11-21T06:06:43;99560.78;;;6.16
72278;BMP280;61204;49.980;8.358;2022-11-21T06:09:09;99560.91;;;6.08
72278;BMP280;61204;49.980;8.358;2022-11-21T06:11:34;99562.63;;;6.13
72278;BMP280;61204;49.980;8.358;2022-11-21T06:14:00;99561.91;;;6.13
72278;BMP280;61204;49.980;8.358;2022-11-21T06:16:25;99575.94;;;6.09
72278;BMP280;61204;49.980;8.358;2022-11-21T06:18:51;99569.63;;;6.06
72278;BMP280;61204;49.980;8.358;2022-11-21T06:21:20;99581.38;;;5.99
72278;BMP280;61204;49.980;8.358;2022-11-21T06:23:52;99581.09;;;6.05
72278;BMP280;61204;49.980;8.358;2022-11-21T06:26:23;99578.06;;;6.01
72278;BMP280;61204;49.980;8.358;2022-11-21T06:28:51;99591.25;;;6.04
72278;BMP280;61204;49.980;8.358;2022-11-21T06:31:23;99588.94;;;6.01
72278;BMP280;61204;49.980;8.358;2022-11-21T06:33:56;99585.38;;;6.08
72278;BMP280;61204;49.980;8.358;2022-11-21T06:36:24;99589.66;;;6.01
72278;BMP280;61204;49.980;8.358;2022-11-21T06:38:52;99584.31;;;5.94
72278;BMP280;61204;49.980;8.358;2022-11-21T06:41:24;99578.88;;;5.94
72278;BMP280;61204;49.980;8.358;2022-11-21T06:43:54;99577.50;;;6.02
72278;BMP280;61204;49.980;8.358;2022-11-21T06:46:19;99589.84;;;6.03
72278;BMP280;61204;49.980;8.358;2022-11-21T06:48:45;99587.81;;;6.04
72278;BMP280;61204;49.980;8.358;2022-11-21T06:51:18;99587.69;;;6.02
72278;BMP280;61204;49.980;8.358;2022-11-21T06:53:52;99590.06;;;5.98
72278;BMP280;61204;49.980;8.358;2022-11-21T06:56:24;99586.22;;;6.01
72278;BMP280;61204;49.980;8.358;2022-11-21T06:58:52;99593.69;;;6.00
72278;BMP280;61204;49.980;8.358;2022-11-21T07:01:18;99592.78;;;5.98
72278;BMP280;61204;49.980;8.358;2022-11-21T07:03:43;99592.78;;;5.98
72278;BMP280;61204;49.980;8.358;2022-11-21T07:06:09;99585.91;;;5.97
72278;BMP280;61204;49.980;8.358;2022-11-21T07:08:35;99585.28;;;6.06
72278;BMP280;61204;49.980;8.358;2022-11-21T07:11:03;99594.69;;;6.05
72278;BMP280;61204;49.980;8.358;2022-11-21T07:13:32;99589.69;;;6.11
72278;BMP280;61204;49.980;8.358;2022-11-21T07:16:05;99585.56;;;6.10
72278;BMP280;61204;49.980;8.358;2022-11-21T07:18:35;99594.88;;;6.17
72278;BMP280;61204;49.980;8.358;2022-11-21T07:21:03;99590.03;;;6.25
72278;BMP280;61204;49.980;8.358;2022-11-21T07:23:31;99592.59;;;6.23
72278;BMP280;61204;49.980;8.358;2022-11-21T07:26:05;99595.50;;;6.25
72278;BMP280;61204;49.980;8.358;2022-11-21T07:28:32;99591.91;;;6.32
72278;BMP280;61204;49.980;8.358;2022-11-21T07:31:00;99602.38;;;6.36
72278;BMP280;61204;49.980;8.358;2022-11-21T07:33:27;99604.97;;;6.43
72278;BMP280;61204;49.980;8.358;2022-11-21T07:35:57;99608.28;;;6.42
72278;BMP280;61204;49.980;8.358;2022-11-21T07:38:24;99609.72;;;6.43
72278;BMP280;61204;49.980;8.358;2022-11-21T07:40:50;99611.31;;;6.46
72278;BMP280;61204;49.980;8.358;2022-11-21T07:43:17;99615.88;;;6.43
72278;BMP280;61204;49.980;8.358;2022-11-21T07:45:42;99612.75;;;6.47
72278;BMP280;61204;49.980;8.358;2022-11-21T07:48:08;99619.91;;;6.52
72278;BMP280;61204;49.980;8.358;2022-11-21T07:50:34;99616.63;;;6.53
72278;BMP280;61204;49.980;8.358;2022-11-21T07:53:02;99618.63;;;6.53
72278;BMP280;61204;49.980;8.358;2022-11-21T07:55:31;99614.91;;;6.58
72278;BMP280;61204;49.980;8.358;2022-11-21T07:58:05;99615.06;;;6.60
72278;BMP280;61204;49.980;8.358;2022-11-21T08:00:35;99615.94;;;6.63
72278;BMP280;61204;49.980;8.358;2022-11-21T08:03:04;99619.38;;;6.92
72278;BMP280;61204;49.980;8.358;2022-11-21T08:05:35;99613.94;;;7.21
72278;BMP280;61204;49.980;8.358;2022-11-21T08:08:01;99611.50;;;7.16
72278;BMP280;61204;49.980;8.358;2022-11-21T08:10:27;99602.03;;;7.07
72278;BMP280;61204;49.980;8.358;2022-11-21T08:12:53;99615.78;;;7.48
72278;BMP280;61204;49.980;8.358;2022-11-21T08:15:18;99605.78;;;7.81
72278;BMP280;61204;49.980;8.358;2022-11-21T08:17:44;99612.97;;;7.77
72278;BMP280;61204;49.980;8.358;2022-11-21T08:20:09;99604.97;;;7.69
72278;BMP280;61204;49.980;8.358;2022-11-21T08:22:39;99613.59;;;7.56
72278;BMP280;61204;49.980;8.358;2022-11-21T08:25:07;99611.06;;;7.38
72278;BMP280;61204;49.980;8.358;2022-11-21T08:27:36;99605.59;;;7.38
72278;BMP280;61204;49.980;8.358;2022-11-21T08:30:05;99605.03;;;7.40
72278;BMP280;61204;49.980;8.358;2022-11-21T08:32:34;99604.59;;;7.44
72278;BMP280;61204;49.980;8.358;2022-11-21T08:34:59;99601.16;;;7.43
72278;BMP280;61204;49.980;8.358;2022-11-21T08:37:28;99597.38;;;7.48
72278;BMP280;61204;49.980;8.358;2022-11-21T08:39:54;99601.41;;;7.57
72278;BMP280;61204;49.980;8.358;2022-11-21T08:42:23;99590.34;;;7.64
72278;BMP280;61204;49.980;8.358;2022-11-21T08:44:50;99603.84;;;7.94
72278;BMP280;61204;49.980;8.358;2022-11-21T08:47:15;99599.47;;;8.41
72278;BMP280;61204;49.980;8.358;2022-11-21T08:49:41;99593.09;;;8.48
72278;BMP280;61204;49.980;8.358;2022-11-21T08:52:06;99601.91;;;8.37
72278;BMP280;61204;49.980;8.358;2022-11-21T08:54:32;99595.63;;;8.34
72278;BMP280;61204;49.980;8.358;2022-11-21T08:56:57;99597.03;;;8.14
72278;BMP280;61204;49.980;8.358;2022-11-21T08:59:23;99590.25;;;8.79
72278;BMP280;61204;49.980;8.358;2022-11-21T09:01:48;99598.56;;;9.83
72278;BMP280;61204;49.980;8.358;2022-11-21T09:04:14;99590.59;;;9.75
72278;BMP280;61204;49.980;8.358;2022-11-21T09:06:40;99577.59;;;9.40
72278;BMP280;61204;49.980;8.358;2022-11-21T09:09:06;99587.81;;;9.98
72278;BMP280;61204;49.980;8.358;2022-11-21T09:11:32;99575.56;;;10.23
72278;BMP280;61204;49.980;8.358;2022-11-21T09:14:02;99592.31;;;10.66
72278;BMP280;61204;49.980;8.358;2022-11-21T09:16:47;99587.88;;;11.37
72278;BMP280;61204;49.980;8.358;2022-11-21T09:19:31;99581.31;;;11.03
72278;BMP280;61204;49.980;8.358;2022-11-21T09:21:56;99574.53;;;10.42
72278;BMP280;61204;49.980;8.358;2022-11-21T09:24:22;99581.63;;;10.58
72278;BMP280;61204;49.980;8.358;2022-11-21T09:26:48;99590.00;;;10.74
72278;BMP280;61204;49.980;8.358;2022-11-21T09:29:14;99579.91;;;10.40
72278;BMP280;61204;49.980;8.358;2022-11-21T09:31:41;99578.22;;;10.46
72278;BMP280;61204;49.980;8.358;2022-11-21T09:34:07;99568.06;;;10.49
72278;BMP280;61204;49.980;8.358;2022-11-21T09:36:33;99562.59;;;10.00
72278;BMP280;61204;49.980;8.358;2022-11-21T09:38:59;99570.09;;;9.64
72278;BMP280;61204;49.980;8.358;2022-11-21T09:42:21;99577.50;;;9.50
72278;BMP280;61204;49.980;8.358;2022-11-21T09:45:14;99565.25;;;9.51
72278;BMP280;61204;49.980;8.358;2022-11-21T09:47:50;99565.94;;;9.40
72278;BMP280;61204;49.980;8.358;2022-11-21T09:50:38;99557.69;;;9.16
72278;BMP280;61204;49.980;8.358;2022-11-21T09:53:15;99556.38;;;9.17
72278;BMP280;61204;49.980;8.358;2022-11-21T09:55:59;99541.84;;;9.03
72278;BMP280;61204;49.980;8.358;2022-11-21T09:58:44;99551.31;;;8.90
72278;BMP280;61204;49.980;8.358;2022-11-21T10:01:30;99549.34;;;8.69
72278;BMP280;61204;49.980;8.358;2022-11-21T10:03:56;99540.53;;;8.59
72278;BMP280;61204;49.980;8.358;2022-11-21T10:06:30;99550.84;;;8.61
72278;BMP280;61204;49.980;8.358;2022-11-21T10:09:13;99541.25;;;8.60
72278;BMP280;61204;49.980;8.358;2022-11-21T10:15:55;99542.88;;;8.53
72278;BMP280;61204;49.980;8.358;2022-11-21T10:25:02;99544.19;;;8.52
72278;BMP280;61204;49.980;8.358;2022-11-21T10:28:17;99541.63;;;8.66
72278;BMP280;61204;49.980;8.358;2022-11-21T10:31:10;99536.09;;;8.76
72278;BMP280;61204;49.980;8.358;2022-11-21T10:33:39;99531.97;;;8.86
72278;BMP280;61204;49.980;8.358;2022-11-21T10:39:00;99528.53;;;8.97
72278;BMP280;61204;49.980;8.358;2022-11-21T10:45:02;99521.16;;;9.00
72278;BMP280;61204;49.980;8.358;2022-11-21T10:47:42;99515.13;;;9.25
72278;BMP280;61204;49.980;8.358;2022-11-21T10:53:36;99515.34;;;9.99
72278;BMP280;61204;49.980;8.358;2022-11-21T10:56:21;99505.78;;;10.12
72278;BMP280;61204;49.980;8.358;2022-11-21T10:58:52;99493.00;;;10.54
72278;BMP280;61204;49.980;8.358;2022-11-21T11:01:33;99498.16;;;11.40
72278;BMP280;61204;49.980;8.358;2022-11-21T11:04:07;99501.81;;;12.15
72278;BMP280;61204;49.980;8.358;2022-11-21T11:06:45;99495.81;;;12.96
72278;BMP280;61204;49.980;8.358;2022-11-21T11:09:31;99501.72;;;12.58
72278;BMP280;61204;49.980;8.358;2022-11-21T11:12:30;99481.25;;;11.59
72278;BMP280;61204;49.980;8.358;2022-11-21T11:15:24;99482.06;;;11.07
72278;BMP280;61204;49.980;8.358;2022-11-21T11:18:00;99487.22;;;10.87
72278;BMP280;61204;49.980;8.358;2022-11-21T11:20:40;99483.38;;;10.67
72278;BMP280;61204;49.980;8.358;2022-11-21T11:25:54;99469.44;;;10.23
72278;BMP280;61204;49.980;8.358;2022-11-21T11:28:24;99466.59;;;10.10
72278;BMP280;61204;49.980;8.358;2022-11-21T11:31:01;99462.94;;;10.05
72278;BMP280;61204;49.980;8.358;2022-11-21T11:33:48;99448.66;;;10.06
72278;BMP280;61204;49.980;8.358;2022-11-21T11:36:37;99451.56;;;9.97
72278;BMP280;61204;49.980;8.358;2022-11-21T11:46:05;99434.72;;;9.65
72278;BMP280;61204;49.980;8.358;2022-11-21T11:49:38;99423.56;;;9.61
72278;BMP280;61204;49.980;8.358;2022-11-21T11:52:31;99415.56;;;9.65
72278;BMP280;61204;49.980;8.358;2022-11-21T11:58:23;99400.41;;;9.76
72278;BMP280;61204;49.980;8.358;2022-11-21T12:01:14;99393.22;;;9.69
72278;BMP280;61204;49.980;8.358;2022-11-21T12:04:14;99389.75;;;9.57
72278;BMP280;61204;49.980;8.358;2022-11-21T12:09:37;99383.47;;;9.54
72278;BMP280;61204;49.980;8.358;2022-11-21T12:12:38;99375.53;;;9.46
72278;BMP280;61204;49.980;8.358;2022-11-21T12:15:35;99384.72;;;9.65
72278;BMP280;61204;49.980;8.358;2022-11-21T12:35:46;99355.59;;;11.87
72278;BMP280;61204;49.980;8.358;2022-11-21T12:38:49;99356.22;;;11.86
72278;BMP280;61204;49.980;8.358;2022-11-21T12:42:11;99356.38;;;12.67
72278;BMP280;61204;49.980;8.358;2022-11-21T12:45:34;99353.59;;;13.87
72278;BMP280;61204;49.980;8.358;2022-11-21T12:48:23;99346.34;;;14.34
72278;BMP280;61204;49.980;8.358;2022-11-21T12:51:52;99331.38;;;15.02
72278;BMP280;61204;49.980;8.358;2022-11-21T12:58:22;99321.00;;;15.23
72278;BMP280;61204;49.980;8.358;2022-11-21T13:01:05;99317.56;;;15.70
72278;BMP280;61204;49.980;8.358;2022-11-21T13:03:59;99306.22;;;15.36
72278;BMP280;61204;49.980;8.358;2022-11-21T13:06:39;99299.34;;;14.93
72278;BMP280;61204;49.980;8.358;2022-11-21T13:09:13;99298.03;;;14.13
72278;BMP280;61204;49.980;8.358;2022-11-21T13:12:04;99300.75;;;13.02
72278;BMP280;61204;49.980;8.358;2022-11-21T13:21:43;99283.13;;;11.79
72278;BMP280;61204;49.980;8.358;2022-11-21T13:27:35;99271.91;;;12.04
72278;BMP280;61204;49.980;8.358;2022-11-21T13:32:47;99257.81;;;11.80
72278;BMP280;61204;49.980;8.358;2022-11-21T13:38:03;99257.31;;;11.54
72278;BMP280;61204;49.980;8.358;2022-11-21T13:45:44;99239.31;;;10.92
72278;BMP280;61204;49.980;8.358;2022-11-21T13:48:31;99232.25;;;10.87
72278;BMP280;61204;49.980;8.358;2022-11-21T13:57:17;99215.88;;;10.89
72278;BMP280;61204;49.980;8.358;2022-11-21T14:00:49;99213.97;;;11.37
72278;BMP280;61204;49.980;8.358;2022-11-21T14:09:56;99190.84;;;12.03
72278;BMP280;61204;49.980;8.358;2022-11-21T14:12:27;99187.47;;;12.05
72278;BMP280;61204;49.980;8.358;2022-11-21T14:17:43;99177.31;;;12.41
72278;BMP280;61204;49.980;8.358;2022-11-21T14:23:19;99161.63;;;11.62
72278;BMP280;61204;49.980;8.358;2022-11-21T14:25:49;99150.91;;;11.07
72278;BMP280;61204;49.980;8.358;2022-11-21T14:28:31;99151.34;;;11.02
72278;BMP280;61204;49.980;8.358;2022-11-21T14:33:33;99136.38;;;10.46
72278;BMP280;61204;49.980;8.358;2022-11-21T14:36:20;99135.78;;;9.92
72278;BMP280;61204;49.980;8.358;2022-11-21T14:38:58;99136.28;;;9.61
72278;BMP280;61204;49.980;8.358;2022-11-21T14:41:31;99131.94;;;9.44
72278;BMP280;61204;49.980;8.358;2022-11-21T14:46:27;99134.19;;;9.22
72278;BMP280;61204;49.980;8.358;2022-11-21T14:49:18;99135.09;;;9.13
72278;BMP280;61204;49.980;8.358;2022-11-21T14:52:17;99128.81;;;8.99
72278;BMP280;61204;49.980;8.358;2022-11-21T14:54:58;99125.31;;;8.85
72278;BMP280;61204;49.980;8.358;2022-11-21T14:57:29;99125.56;;;8.77
72278;BMP280;61204;49.980;8.358;2022-11-21T15:00:00;99117.19;;;8.61
72278;BMP280;61204;49.980;8.358;2022-11-21T15:02:31;99106.31;;;8.38
72278;BMP280;61204;49.980;8.358;2022-11-21T15:05:05;99104.81;;;8.23
72278;BMP280;61204;49.980;8.358;2022-11-21T15:07:42;99101.94;;;8.09
72278;BMP280;61204;49.980;8.358;2022-11-21T15:10:17;99093.78;;;7.98
72278;BMP280;61204;49.980;8.358;2022-11-21T15:12:53;99083.56;;;7.86
72278;BMP280;61204;49.980;8.358;2022-11-21T15:15:35;99076.31;;;7.68
72278;BMP280;61204;49.980;8.358;2022-11-21T15:18:11;99066.47;;;7.62
72278;BMP280;61204;49.980;8.358;2022-11-21T15:20:49;99055.56;;;7.51
72278;BMP280;61204;49.980;8.358;2022-11-21T15:23:33;99056.88;;;7.50
72278;BMP280;61204;49.980;8.358;2022-11-21T15:26:04;99051.03;;;7.44
72278;BMP280;61204;49.980;8.358;2022-11-21T15:28:54;99021.19;;;7.46
72278;BMP280;61204;49.980;8.358;2022-11-21T15:31:21;99023.41;;;7.37
72278;BMP280;61204;49.980;8.358;2022-11-21T15:36:28;99002.78;;;7.23
72278;BMP280;61204;49.980;8.358;2022-11-21T15:39:10;98992.06;;;7.15
72278;BMP280;61204;49.980;8.358;2022-11-21T15:41:45;98989.59;;;7.07
72278;BMP280;61204;49.980;8.358;2022-11-21T15:46:37;98976.91;;;7.00
72278;BMP280;61204;49.980;8.358;2022-11-21T15:49:08;98980.69;;;6.95
72278;BMP280;61204;49.980;8.358;2022-11-21T15:51:41;98963.16;;;6.87
72278;BMP280;61204;49.980;8.358;2022-11-21T15:54:18;98948.41;;;6.80
72278;BMP280;61204;49.980;8.358;2022-11-21T15:56:46;98951.47;;;6.74
72278;BMP280;61204;49.980;8.358;2022-11-21T15:59:12;98950.78;;;6.74
72278;BMP280;61204;49.980;8.358;2022-11-21T16:01:40;98947.69;;;6.68
72278;BMP280;61204;49.980;8.358;2022-11-21T16:04:08;98941.53;;;6.67
72278;BMP280;61204;49.980;8.358;2022-11-21T16:06:36;98928.03;;;6.69
72278;BMP280;61204;49.980;8.358;2022-11-21T16:09:03;98919.50;;;6.63
72278;BMP280;61204;49.980;8.358;2022-11-21T16:11:35;98919.50;;;6.63
72278;BMP280;61204;49.980;8.358;2022-11-21T16:14:04;98913.06;;;6.58
72278;BMP280;61204;49.980;8.358;2022-11-21T16:16:37;98908.00;;;6.65
72278;BMP280;61204;49.980;8.358;2022-11-21T16:19:05;98904.56;;;6.64
72278;BMP280;61204;49.980;8.358;2022-11-21T16:21:31;98904.44;;;6.62
72278;BMP280;61204;49.980;8.358;2022-11-21T16:23:57;98904.78;;;6.56
72278;BMP280;61204;49.980;8.358;2022-11-21T16:26:23;98899.09;;;6.52
72278;BMP280;61204;49.980;8.358;2022-11-21T16:28:55;98902.38;;;6.51
72278;BMP280;61204;49.980;8.358;2022-11-21T16:31:27;98897.31;;;6.45
72278;BMP280;61204;49.980;8.358;2022-11-21T16:33:55;98891.47;;;6.39
72278;BMP280;61204;49.980;8.358;2022-11-21T16:36:27;98887.91;;;6.37
72278;BMP280;61204;49.980;8.358;2022-11-21T16:38:55;98884.84;;;6.30
72278;BMP280;61204;49.980;8.358;2022-11-21T16:41:25;98878.97;;;6.24
72278;BMP280;61204;49.980;8.358;2022-11-21T16:43:52;98858.88;;;6.18
72278;BMP280;61204;49.980;8.358;2022-11-21T16:46:21;98856.47;;;6.12